createdAt,value
2019-03-26T00:00:17.307Z,98.2
2019-03-26T00:01:16.363Z,98.2
2019-03-26T00:02:16.638Z,98.2
2019-03-26T00:03:16.922Z,98.2
2019-03-26T00:04:17.234Z,98.1
2019-03-26T00:05:16.544Z,98.1
2019-03-26T00:06:16.876Z,98.1
2019-03-26T00:07:17.169Z,98.1
2019-03-26T00:08:16.458Z,98.2
2019-03-26T00:09:16.742Z,98.2
2019-03-26T00:10:17.053Z,98.2
2019-03-26T00:11:17.128Z,98.2
2019-03-26T00:12:16.420Z,98.2
2019-03-26T00:13:16.723Z,98.2
2019-03-26T00:14:17.037Z,98.2
2019-03-26T00:15:16.359Z,98.2
2019-03-26T00:16:16.663Z,98.2
2019-03-26T00:17:16.945Z,98.2
2019-03-26T00:18:17.244Z,98.2
2019-03-26T00:19:16.581Z,98.2
2019-03-26T00:20:16.923Z,98.2
2019-03-26T00:21:16.918Z,98.1
2019-03-26T00:22:17.203Z,98.1
2019-03-26T00:23:16.512Z,98.1
2019-03-26T00:24:16.787Z,98.1
2019-03-26T00:25:17.106Z,98.1
2019-03-26T00:26:16.412Z,98.1
2019-03-26T00:27:16.719Z,98.1
2019-03-26T00:28:17.033Z,98.2
2019-03-26T00:29:16.357Z,98.2
2019-03-26T00:30:16.705Z,98.2
2019-03-26T00:31:16.723Z,98.2
2019-03-26T00:32:17.007Z,98.2
2019-03-26T00:33:16.375Z,98.2
2019-03-26T00:34:19.957Z,98.0
2019-03-26T00:35:17.341Z,98.2
2019-03-26T00:36:16.615Z,98.0
2019-03-26T00:37:16.915Z,98.0
2019-03-26T00:38:17.238Z,98.0
2019-03-26T00:39:16.561Z,98.0
2019-03-26T00:40:16.875Z,97.8
2019-03-26T00:41:16.940Z,97.8
2019-03-26T00:42:17.241Z,97.8
2019-03-26T00:43:16.568Z,97.8
2019-03-26T00:44:16.899Z,97.8
2019-03-26T00:45:17.170Z,97.8
2019-03-26T00:46:16.471Z,97.8
2019-03-26T00:47:16.772Z,97.8
2019-03-26T00:48:17.075Z,97.8
2019-03-26T00:49:16.381Z,97.8
2019-03-26T00:50:16.676Z,97.8
2019-03-26T00:51:16.771Z,97.8
2019-03-26T00:52:17.084Z,97.8
2019-03-26T00:53:16.379Z,97.9
2019-03-26T00:54:16.678Z,98.0
2019-03-26T00:55:23.263Z,98.0
2019-03-26T00:56:16.621Z,98.0
2019-03-26T00:57:16.936Z,98.0
2019-03-26T00:58:17.236Z,98.0
2019-03-26T00:59:16.627Z,98.0
2019-03-26T01:00:16.930Z,98.0
2019-03-26T01:01:16.983Z,98.0
2019-03-26T01:02:17.269Z,98.0
2019-03-26T01:03:16.591Z,98.0
2019-03-26T01:04:16.893Z,98.0
2019-03-26T01:05:17.184Z,98.0
2019-03-26T01:06:16.477Z,98.0
2019-03-26T01:07:16.775Z,98.0
2019-03-26T01:08:17.072Z,98.0
2019-03-26T01:09:16.369Z,98.0
2019-03-26T01:10:16.662Z,98.0
2019-03-26T01:11:16.725Z,98.0
2019-03-26T01:12:17.036Z,98.0
2019-03-26T01:13:16.341Z,98.0
2019-03-26T01:14:16.656Z,98.0
2019-03-26T01:15:16.949Z,98.0
2019-03-26T01:16:17.337Z,98.0
2019-03-26T01:17:16.652Z,98.0
2019-03-26T01:18:16.962Z,98.0
2019-03-26T01:19:17.240Z,98.0
2019-03-26T01:20:16.548Z,98.0
2019-03-26T01:21:16.585Z,98.0
2019-03-26T01:22:16.880Z,98.0
2019-03-26T01:23:17.196Z,98.0
2019-03-26T01:24:16.516Z,98.0
2019-03-26T01:25:16.854Z,98.0
2019-03-26T01:26:17.162Z,98.0
2019-03-26T01:27:16.476Z,98.0
2019-03-26T01:28:16.781Z,98.0
2019-03-26T01:29:17.128Z,98.0
2019-03-26T01:30:16.481Z,98.0
2019-03-26T01:31:16.762Z,98.0
2019-03-26T01:32:17.054Z,98.0
2019-03-26T01:33:16.344Z,98.0
2019-03-26T01:34:16.647Z,98.0
2019-03-26T01:35:16.931Z,98.0
2019-03-26T01:36:17.232Z,98.0
2019-03-26T01:37:16.532Z,98.1
2019-03-26T01:38:16.850Z,98.1
2019-03-26T01:39:17.133Z,98.2
2019-03-26T01:40:16.409Z,98.2
2019-03-26T01:41:16.719Z,98.2
2019-03-26T01:42:17.055Z,98.2
2019-03-26T01:43:16.353Z,98.2
2019-03-26T01:44:16.654Z,98.2
2019-03-26T01:45:16.935Z,98.2
2019-03-26T01:46:17.430Z,98.2
2019-03-26T01:47:16.727Z,98.2
2019-03-26T01:48:17.024Z,98.2
2019-03-26T01:49:16.323Z,98.2
2019-03-26T01:50:16.650Z,98.2
2019-03-26T01:51:16.677Z,98.2
2019-03-26T01:52:17.027Z,98.1
2019-03-26T01:53:16.321Z,98.1
2019-03-26T01:54:16.633Z,98.0
2019-03-26T01:55:16.974Z,98.0
2019-03-26T01:56:17.286Z,98.0
2019-03-26T01:57:16.592Z,97.9
2019-03-26T01:58:16.869Z,97.9
2019-03-26T01:59:17.166Z,97.8
2019-03-26T02:00:16.465Z,97.8
2019-03-26T02:01:16.538Z,97.8
2019-03-26T02:02:16.852Z,97.8
2019-03-26T02:03:17.158Z,97.8
2019-03-26T02:04:16.493Z,97.8
2019-03-26T02:05:16.796Z,97.8
2019-03-26T02:06:17.132Z,97.8
2019-03-26T02:07:16.403Z,97.9
2019-03-26T02:08:16.697Z,97.9
2019-03-26T02:09:16.993Z,98.0
2019-03-26T02:10:16.323Z,98.0
2019-03-26T02:11:16.322Z,98.0
2019-03-26T02:12:16.607Z,98.0
2019-03-26T02:13:16.893Z,98.1
2019-03-26T02:14:17.166Z,98.2
2019-03-26T02:15:16.483Z,98.2
2019-03-26T02:16:16.802Z,98.2
2019-03-26T02:17:17.100Z,98.2
2019-03-26T02:18:16.394Z,98.2
2019-03-26T02:19:16.688Z,98.2
2019-03-26T02:20:17.004Z,98.2
2019-03-26T02:21:17.019Z,98.3
2019-03-26T02:22:16.341Z,98.3
2019-03-26T02:23:16.645Z,98.3
2019-03-26T02:24:17.021Z,98.3
2019-03-26T02:25:16.400Z,98.3
2019-03-26T02:26:16.798Z,98.3
2019-03-26T02:27:17.101Z,98.3
2019-03-26T02:28:16.446Z,98.3
2019-03-26T02:29:16.753Z,98.3
2019-03-26T02:30:17.086Z,98.3
2019-03-26T02:31:17.120Z,98.2
2019-03-26T02:32:16.414Z,98.2
2019-03-26T02:33:16.712Z,98.2
2019-03-26T02:34:17.060Z,98.2
2019-03-26T02:35:19.284Z,98.2
2019-03-26T02:36:16.722Z,98.0
2019-03-26T02:37:17.029Z,98.0
2019-03-26T02:38:16.350Z,98.0
2019-03-26T02:39:16.666Z,98.0
2019-03-26T02:40:16.943Z,98.1
2019-03-26T02:41:17.005Z,98.2
2019-03-26T02:42:16.315Z,98.2
2019-03-26T02:43:16.610Z,98.2
2019-03-26T02:44:16.943Z,98.2
2019-03-26T02:45:17.260Z,98.2
2019-03-26T02:46:16.606Z,98.2
2019-03-26T02:47:16.968Z,98.2
2019-03-26T02:48:17.282Z,98.2
2019-03-26T02:49:16.605Z,98.2
2019-03-26T02:50:16.960Z,98.2
2019-03-26T02:51:16.979Z,98.2
2019-03-26T02:52:17.319Z,98.3
2019-03-26T02:53:16.636Z,98.2
2019-03-26T02:54:16.914Z,98.3
2019-03-26T02:55:17.229Z,98.2
2019-03-26T02:56:16.557Z,98.2
2019-03-26T02:57:16.848Z,98.2
2019-03-26T02:58:17.149Z,98.2
2019-03-26T02:59:16.463Z,98.2
2019-03-26T03:00:16.830Z,98.2
2019-03-26T03:01:16.797Z,98.2
2019-03-26T03:02:17.127Z,98.2
2019-03-26T03:03:16.483Z,98.2
2019-03-26T03:04:16.790Z,98.2
2019-03-26T03:05:35.409Z,98.3
2019-03-26T03:06:16.374Z,98.3
2019-03-26T03:07:16.672Z,98.2
2019-03-26T03:08:17.001Z,98.2
2019-03-26T03:09:16.307Z,98.2
2019-03-26T03:10:16.592Z,98.2
2019-03-26T03:11:16.646Z,98.2
2019-03-26T03:12:16.973Z,98.3
2019-03-26T03:13:17.263Z,98.2
2019-03-26T03:14:16.594Z,98.2
2019-03-26T03:15:16.953Z,98.2
2019-03-26T03:16:17.255Z,98.2
2019-03-26T03:17:16.579Z,98.2
2019-03-26T03:18:16.878Z,98.2
2019-03-26T03:19:17.177Z,98.2
2019-03-26T03:20:16.509Z,98.2
2019-03-26T03:21:16.591Z,98.2
2019-03-26T03:22:16.906Z,98.2
2019-03-26T03:23:17.230Z,98.2
2019-03-26T03:24:16.599Z,98.1
2019-03-26T03:25:16.905Z,98.2
2019-03-26T03:26:17.176Z,98.2
2019-03-26T03:27:16.504Z,98.2
2019-03-26T03:28:16.830Z,98.2
2019-03-26T03:29:17.144Z,98.2
2019-03-26T03:30:16.463Z,98.1
2019-03-26T03:31:16.497Z,98.1
2019-03-26T03:32:16.823Z,98.0
2019-03-26T03:33:17.143Z,98.2
2019-03-26T03:34:16.690Z,98.2
2019-03-26T03:35:17.176Z,98.2
2019-03-26T03:36:16.590Z,98.2
2019-03-26T03:37:16.984Z,98.2
2019-03-26T03:38:16.397Z,98.2
2019-03-26T03:39:16.798Z,98.2
2019-03-26T03:40:17.192Z,98.2
2019-03-26T03:41:17.240Z,98.2
2019-03-26T03:42:16.669Z,98.2
2019-03-26T03:43:17.077Z,98.2
2019-03-26T03:44:16.500Z,98.3
2019-03-26T03:45:16.907Z,98.3
2019-03-26T03:46:17.313Z,98.3
2019-03-26T03:47:16.716Z,98.3
2019-03-26T03:48:17.120Z,98.2
2019-03-26T03:49:16.531Z,98.2
2019-03-26T03:50:16.940Z,98.3
2019-03-26T03:51:16.999Z,98.4
2019-03-26T03:52:16.410Z,98.3
2019-03-26T03:53:16.832Z,98.4
2019-03-26T03:54:17.242Z,98.4
2019-03-26T03:55:16.642Z,98.4
2019-03-26T03:56:17.048Z,98.4
2019-03-26T03:57:16.459Z,98.4
2019-03-26T03:58:16.859Z,98.3
2019-03-26T03:59:17.261Z,98.3
2019-03-26T04:00:16.691Z,98.3
2019-03-26T04:01:16.747Z,98.4
2019-03-26T04:02:17.177Z,98.3
2019-03-26T04:03:16.582Z,98.3
2019-03-26T04:04:16.984Z,98.3
2019-03-26T04:05:16.354Z,98.3
2019-03-26T04:06:16.719Z,98.3
2019-03-26T04:07:17.029Z,98.3
2019-03-26T04:08:16.322Z,98.3
2019-03-26T04:09:16.607Z,98.3
2019-03-26T04:10:16.922Z,98.2
2019-03-26T04:11:16.954Z,98.2
2019-03-26T04:12:17.285Z,98.2
2019-03-26T04:13:16.568Z,98.2
2019-03-26T04:14:16.877Z,98.2
2019-03-26T04:15:17.217Z,98.2
2019-03-26T04:16:16.524Z,98.2
2019-03-26T04:17:16.812Z,98.2
2019-03-26T04:18:17.130Z,98.1
2019-03-26T04:19:16.440Z,98.1
2019-03-26T04:20:16.755Z,98.0
2019-03-26T04:21:16.827Z,98.0
2019-03-26T04:22:17.143Z,97.8
2019-03-26T04:23:16.465Z,97.8
2019-03-26T04:24:16.764Z,97.8
2019-03-26T04:25:17.118Z,97.8
2019-03-26T04:26:16.424Z,97.8
2019-03-26T04:27:16.757Z,97.7
2019-03-26T04:28:17.076Z,97.7
2019-03-26T04:29:16.368Z,97.7
2019-03-26T04:30:16.664Z,97.7
2019-03-26T04:31:16.824Z,97.7
2019-03-26T04:32:17.130Z,97.5
2019-03-26T04:33:16.445Z,97.6
2019-03-26T04:34:16.759Z,97.6
2019-03-26T04:35:17.065Z,97.6
2019-03-26T04:36:26.550Z,97.5
2019-03-26T04:37:17.010Z,97.6
2019-03-26T04:38:16.361Z,97.6
2019-03-26T04:39:16.631Z,97.6
2019-03-26T04:40:16.945Z,97.5
2019-03-26T04:41:16.995Z,97.5
2019-03-26T04:42:16.288Z,97.5
2019-03-26T04:43:19.245Z,97.4
2019-03-26T04:44:16.587Z,97.4
2019-03-26T04:45:16.886Z,97.3
2019-03-26T04:46:17.212Z,97.4
2019-03-26T04:47:16.540Z,97.4
2019-03-26T04:48:16.868Z,97.4
2019-03-26T04:49:17.165Z,97.3
2019-03-26T04:50:16.496Z,97.2
2019-03-26T04:51:16.675Z,97.2
2019-03-26T04:52:16.996Z,97.3
2019-03-26T04:57:16.892Z,97.3
2019-03-26T04:58:17.286Z,97.3
2019-03-26T04:59:16.700Z,97.5
2019-03-26T05:00:17.105Z,97.6
2019-03-26T05:01:17.147Z,97.5
2019-03-26T05:02:16.554Z,97.5
2019-03-26T05:03:16.957Z,97.5
2019-03-26T05:04:17.362Z,97.5
2019-03-26T05:05:16.761Z,97.5
2019-03-26T05:06:17.172Z,97.5
2019-03-26T05:07:16.594Z,97.5
2019-03-26T05:08:16.992Z,97.6
2019-03-26T05:09:16.396Z,97.5
2019-03-26T05:10:16.807Z,97.5
2019-03-26T05:11:16.858Z,97.5
2019-03-26T05:12:17.325Z,97.6
2019-03-26T05:13:16.726Z,97.7
2019-03-26T05:14:17.104Z,97.5
2019-03-26T05:15:16.503Z,97.5
2019-03-26T05:16:16.905Z,97.5
2019-03-26T05:17:17.309Z,97.7
2019-03-26T05:18:16.716Z,97.6
2019-03-26T05:19:17.121Z,97.6
2019-03-26T05:20:16.517Z,97.6
2019-03-26T05:21:16.583Z,97.6
2019-03-26T05:22:24.638Z,97.6
2019-03-26T05:23:17.078Z,97.7
2019-03-26T05:24:16.486Z,97.6
2019-03-26T05:25:16.895Z,97.6
2019-03-26T05:26:17.297Z,97.5
2019-03-26T05:27:16.700Z,97.5
2019-03-26T05:28:17.097Z,97.5
2019-03-26T05:29:16.507Z,97.4
2019-03-26T05:30:16.914Z,97.3
2019-03-26T05:31:16.934Z,97.2
2019-03-26T05:32:18.176Z,97.1
2019-03-26T05:33:16.571Z,97.2
2019-03-26T05:34:16.980Z,97.0
2019-03-26T05:35:16.453Z,97.0
2019-03-26T05:36:16.856Z,96.8
2019-03-26T05:37:17.261Z,96.8
2019-03-26T05:38:16.662Z,96.9
2019-03-26T05:39:17.057Z,96.9
2019-03-26T05:40:16.477Z,96.8
2019-03-26T05:41:16.505Z,96.9
2019-03-26T05:42:16.905Z,96.8
2019-03-26T05:43:17.297Z,96.8
2019-03-26T05:44:16.697Z,96.8
2019-03-26T05:45:17.102Z,96.8
2019-03-26T05:46:16.494Z,96.9
2019-03-26T05:47:16.902Z,96.8
2019-03-26T05:48:17.300Z,96.7
2019-03-26T05:49:16.695Z,96.7
2019-03-26T05:50:17.109Z,96.6
2019-03-26T05:51:17.146Z,96.5
2019-03-26T05:52:16.552Z,96.5
2019-03-26T05:53:16.959Z,96.5
2019-03-26T05:54:17.354Z,96.5
2019-03-26T05:55:16.751Z,96.5
2019-03-26T05:56:17.154Z,96.5
2019-03-26T05:57:16.568Z,96.6
2019-03-26T05:58:16.955Z,96.6
2019-03-26T05:59:16.421Z,96.5
2019-03-26T06:00:16.838Z,96.5
2019-03-26T06:01:16.883Z,96.5
2019-03-26T06:02:18.392Z,96.5
2019-03-26T06:03:16.792Z,96.5
2019-03-26T06:04:17.194Z,96.5
2019-03-26T06:05:16.605Z,96.5
2019-03-26T06:06:17.001Z,96.5
2019-03-26T06:07:16.413Z,96.3
2019-03-26T06:08:16.813Z,96.2
2019-03-26T06:09:17.258Z,96.2
2019-03-26T06:10:16.697Z,96.1
2019-03-26T06:11:16.746Z,96.2
2019-03-26T06:12:17.141Z,96.1
2019-03-26T06:13:16.543Z,96.1
2019-03-26T06:14:16.939Z,96.0
2019-03-26T06:15:17.373Z,96.0
2019-03-26T06:16:16.770Z,95.9
2019-03-26T06:17:17.160Z,95.8
2019-03-26T06:18:16.556Z,95.8
2019-03-26T06:19:16.952Z,95.8
2019-03-26T06:20:17.353Z,95.7
2019-03-26T06:21:16.403Z,95.7
2019-03-26T06:22:16.794Z,95.5
2019-03-26T06:23:17.188Z,95.5
2019-03-26T06:24:16.584Z,95.5
2019-03-26T06:25:16.994Z,95.5
2019-03-26T06:26:16.404Z,95.6
2019-03-26T06:27:16.816Z,95.6
2019-03-26T06:28:17.211Z,95.6
2019-03-26T06:29:16.624Z,95.6
2019-03-26T06:30:17.053Z,95.5
2019-03-26T06:31:17.085Z,95.5
2019-03-26T06:32:16.489Z,95.5
2019-03-26T06:33:16.880Z,95.4
2019-03-26T06:34:17.279Z,95.6
2019-03-26T06:35:16.784Z,95.7
2019-03-26T06:36:17.202Z,95.7
2019-03-26T06:37:18.521Z,95.5
2019-03-26T06:38:16.929Z,95.5
2019-03-26T06:39:17.331Z,95.2
2019-03-26T06:40:16.749Z,95.2
2019-03-26T06:41:16.778Z,95.2
2019-03-26T06:42:17.170Z,95.1
2019-03-26T06:43:16.560Z,94.9
2019-03-26T06:44:16.970Z,94.6
2019-03-26T06:45:17.391Z,94.6
2019-03-26T06:46:16.787Z,94.2
2019-03-26T06:47:17.188Z,93.3
2019-03-26T06:48:16.595Z,93.2
2019-03-26T06:49:17.000Z,93.1
2019-03-26T06:50:16.399Z,93.1
2019-03-26T06:51:16.457Z,92.8
2019-03-26T06:52:16.858Z,92.3
2019-03-26T06:53:17.254Z,92.8
2019-03-26T06:54:16.684Z,92.7
2019-03-26T06:55:17.106Z,92.5
2019-03-26T06:56:16.505Z,92.5
2019-03-26T06:57:16.923Z,92.2
2019-03-26T06:58:17.327Z,92.1
2019-03-26T06:59:17.096Z,91.5
2019-03-26T07:00:16.520Z,91.3
2019-03-26T07:01:16.567Z,91.7
2019-03-26T07:02:16.963Z,91.3
2019-03-26T07:03:17.362Z,91.0
2019-03-26T07:04:16.759Z,89.8
2019-03-26T07:05:17.158Z,89.6
2019-03-26T07:06:16.556Z,90.2
2019-03-26T07:07:16.966Z,89.9
2019-03-26T07:08:17.375Z,90.0
2019-03-26T07:09:16.786Z,90.0
2019-03-26T07:10:17.188Z,90.3
2019-03-26T07:11:17.221Z,90.6
2019-03-26T07:12:16.624Z,89.8
2019-03-26T07:13:17.023Z,89.6
2019-03-26T07:14:16.422Z,89.9
2019-03-26T07:15:16.842Z,90.1
2019-03-26T07:16:17.255Z,89.5
2019-03-26T07:17:16.653Z,89.9
2019-03-26T07:18:16.995Z,89.8
2019-03-26T07:19:16.331Z,89.1
2019-03-26T07:20:16.673Z,89.6
2019-03-26T07:21:16.731Z,89.9
2019-03-26T07:22:17.065Z,89.5
2019-03-26T07:23:16.395Z,88.2
2019-03-26T07:24:16.707Z,88.3
2019-03-26T07:25:17.048Z,88.5
2019-03-26T07:26:16.369Z,88.2
2019-03-26T07:27:16.676Z,88.4
2019-03-26T07:28:16.977Z,87.8
2019-03-26T07:29:17.277Z,87.4
2019-03-26T07:30:16.628Z,86.8
2019-03-26T07:31:16.674Z,86.6
2019-03-26T07:32:17.081Z,85.4
2019-03-26T07:33:16.383Z,85.1
2019-03-26T07:34:16.702Z,85.7
2019-03-26T07:35:17.006Z,86.3
2019-03-26T07:36:16.319Z,86.6
2019-03-26T07:37:16.649Z,87.7
2019-03-26T07:38:16.953Z,87.5
2019-03-26T07:39:17.269Z,87.5
2019-03-26T07:40:16.579Z,86.8
2019-03-26T07:41:16.639Z,86.2
2019-03-26T07:42:16.964Z,85.6
2019-03-26T07:43:17.262Z,85.6
2019-03-26T07:44:16.539Z,84.9
2019-03-26T07:45:16.870Z,85.1
2019-03-26T07:46:17.171Z,85.5
2019-03-26T07:47:16.521Z,86.5
2019-03-26T07:48:16.795Z,86.6
2019-03-26T07:49:17.109Z,86.8
2019-03-26T07:50:16.416Z,86.7
2019-03-26T07:51:16.485Z,86.3
2019-03-26T07:52:16.771Z,85.9
2019-03-26T07:53:17.066Z,84.3
2019-03-26T07:54:16.367Z,83.7
2019-03-26T07:55:16.661Z,84.0
2019-03-26T07:56:16.951Z,83.3
2019-03-26T07:57:17.295Z,82.3
2019-03-26T07:58:16.606Z,82.2
2019-03-26T07:59:16.929Z,80.7
2019-03-26T08:00:17.262Z,80.6
2019-03-26T08:01:17.257Z,80.8
2019-03-26T08:02:16.558Z,80.8
2019-03-26T08:03:16.859Z,80.8
2019-03-26T08:04:17.167Z,81.0
2019-03-26T08:05:29.736Z,80.8
2019-03-26T08:06:16.396Z,80.8
2019-03-26T08:07:16.739Z,80.7
2019-03-26T08:08:17.055Z,80.7
2019-03-26T08:09:16.475Z,79.7
2019-03-26T08:10:16.769Z,78.8
2019-03-26T08:11:16.816Z,79.1
2019-03-26T08:12:17.090Z,79.7
2019-03-26T08:13:16.424Z,77.8
2019-03-26T08:14:16.744Z,77.1
2019-03-26T08:15:20.446Z,76.8
2019-03-26T08:16:16.783Z,75.0
2019-03-26T08:17:17.154Z,74.5
2019-03-26T08:18:16.479Z,73.2
2019-03-26T08:19:16.795Z,75.1
2019-03-26T08:20:17.112Z,75.3
2019-03-26T08:21:17.141Z,75.3
2019-03-26T08:22:16.462Z,73.8
2019-03-26T08:23:16.769Z,75.4
2019-03-26T08:24:17.070Z,75.0
2019-03-26T08:25:16.331Z,74.7
2019-03-26T08:26:16.637Z,75.0
2019-03-26T08:27:16.935Z,75.7
2019-03-26T08:28:17.223Z,76.2
2019-03-26T08:29:16.548Z,76.7
2019-03-26T08:30:16.848Z,77.2
2019-03-26T08:31:16.886Z,76.5
2019-03-26T08:32:17.187Z,76.9
2019-03-26T08:33:16.466Z,77.0
2019-03-26T08:34:16.768Z,77.2
2019-03-26T08:35:17.116Z,77.3
2019-03-26T08:36:16.403Z,77.1
2019-03-26T08:37:16.660Z,77.1
2019-03-26T08:38:16.959Z,77.2
2019-03-26T08:39:17.265Z,76.5
2019-03-26T08:40:16.570Z,77.1
2019-03-26T08:41:16.636Z,77.1
2019-03-26T08:42:16.930Z,77.8
2019-03-26T08:43:17.236Z,77.6
2019-03-26T08:44:16.534Z,77.2
2019-03-26T08:45:16.929Z,77.4
2019-03-26T08:46:17.335Z,76.7
2019-03-26T08:47:16.735Z,76.8
2019-03-26T08:48:17.136Z,77.1
2019-03-26T08:49:16.547Z,77.3
2019-03-26T08:50:16.956Z,77.1
2019-03-26T08:51:17.010Z,78.3
2019-03-26T08:52:16.404Z,78.4
2019-03-26T08:53:16.800Z,78.5
2019-03-26T08:54:17.196Z,77.8
2019-03-26T08:55:16.593Z,77.8
2019-03-26T08:56:16.998Z,76.8
2019-03-26T08:57:16.411Z,76.3
2019-03-26T08:58:16.837Z,76.8
2019-03-26T08:59:17.239Z,76.5
2019-03-26T09:00:16.669Z,76.0
2019-03-26T09:01:16.693Z,76.3
2019-03-26T09:02:17.084Z,76.2
2019-03-26T09:03:16.483Z,76.3
2019-03-26T09:04:16.889Z,76.6
2019-03-26T09:05:17.314Z,76.5
2019-03-26T09:06:16.719Z,76.2
2019-03-26T09:07:17.115Z,74.2
2019-03-26T09:08:25.872Z,74.3
2019-03-26T09:09:17.332Z,73.8
2019-03-26T09:10:16.762Z,73.5
2019-03-26T09:11:16.785Z,73.7
2019-03-26T09:12:17.185Z,72.1
2019-03-26T09:13:16.583Z,71.3
2019-03-26T09:14:16.985Z,70.8
2019-03-26T09:15:16.396Z,72.6
2019-03-26T09:16:16.790Z,72.7
2019-03-26T09:17:20.139Z,73.3
2019-03-26T09:18:16.574Z,71.6
2019-03-26T09:19:16.963Z,71.2
2019-03-26T09:20:17.371Z,69.8
2019-03-26T09:21:16.417Z,69.9
2019-03-26T09:22:16.818Z,69.6
2019-03-26T09:23:17.220Z,69.8
2019-03-26T09:24:16.629Z,70.3
2019-03-26T09:25:17.035Z,70.1
2019-03-26T09:26:16.433Z,70.5
2019-03-26T09:27:16.831Z,70.1
2019-03-26T09:28:17.229Z,70.2
2019-03-26T09:29:16.621Z,70.3
2019-03-26T09:30:17.050Z,70.3
2019-03-26T09:31:17.099Z,70.6
2019-03-26T09:32:16.499Z,69.4
2019-03-26T09:33:16.892Z,70.3
2019-03-26T09:34:17.290Z,69.3
2019-03-26T09:35:16.695Z,69.3
2019-03-26T09:36:17.125Z,69.9
2019-03-26T09:37:16.565Z,68.8
2019-03-26T09:38:16.988Z,68.8
2019-03-26T09:39:16.386Z,68.5
2019-03-26T09:40:16.792Z,68.9
2019-03-26T09:41:16.843Z,68.1
2019-03-26T09:42:17.236Z,67.2
2019-03-26T09:43:16.638Z,68.0
2019-03-26T09:44:17.035Z,67.8
2019-03-26T09:45:16.452Z,67.3
2019-03-26T09:46:16.855Z,67.2
2019-03-26T09:47:17.253Z,64.3
2019-03-26T09:48:16.662Z,64.3
2019-03-26T09:49:17.057Z,64.8
2019-03-26T09:50:16.462Z,65.0
2019-03-26T09:51:16.533Z,66.0
2019-03-26T09:52:16.934Z,66.5
2019-03-26T09:53:17.343Z,67.8
2019-03-26T09:54:16.734Z,68.9
2019-03-26T09:55:17.250Z,69.0
2019-03-26T09:56:31.956Z,69.2
2019-03-26T09:57:16.449Z,69.0
2019-03-26T09:58:16.860Z,69.6
2019-03-26T09:59:17.273Z,70.1
2019-03-26T10:00:16.683Z,70.3
2019-03-26T10:01:16.730Z,70.1
2019-03-26T10:02:17.136Z,69.5
2019-03-26T10:03:16.575Z,69.7
2019-03-26T10:04:16.970Z,70.2
2019-03-26T10:05:17.400Z,70.8
2019-03-26T10:06:24.041Z,68.5
2019-03-26T10:07:22.182Z,67.3
2019-03-26T10:08:18.135Z,66.6
2019-03-26T10:09:16.544Z,65.9
2019-03-26T10:10:16.944Z,64.0
2019-03-26T10:11:17.002Z,63.8
2019-03-26T10:12:16.402Z,64.5
2019-03-26T10:13:16.804Z,64.1
2019-03-26T10:14:17.202Z,64.2
2019-03-26T10:15:16.614Z,64.0
2019-03-26T10:16:17.015Z,63.9
2019-03-26T10:17:16.415Z,64.1
2019-03-26T10:18:16.815Z,63.9
2019-03-26T10:19:17.402Z,64.2
2019-03-26T10:20:16.836Z,63.8
2019-03-26T10:21:16.901Z,64.4
2019-03-26T10:22:20.290Z,64.0
2019-03-26T10:23:16.714Z,64.9
2019-03-26T10:24:17.104Z,64.8
2019-03-26T10:25:16.514Z,64.6
2019-03-26T10:26:16.921Z,64.3
2019-03-26T10:27:17.327Z,64.0
2019-03-26T10:28:16.706Z,63.2
2019-03-26T10:29:30.733Z,63.1
2019-03-26T10:30:16.566Z,63.2
2019-03-26T10:31:16.616Z,63.5
2019-03-26T10:32:17.021Z,65.4
2019-03-26T10:33:16.419Z,65.9
2019-03-26T10:34:16.817Z,64.2
2019-03-26T10:35:17.242Z,63.4
2019-03-26T10:36:16.646Z,63.0
2019-03-26T10:37:17.058Z,62.5
2019-03-26T10:38:16.464Z,62.4
2019-03-26T10:39:16.871Z,62.2
2019-03-26T10:40:17.275Z,62.2
2019-03-26T10:41:18.891Z,62.2
2019-03-26T10:42:17.299Z,62.9
2019-03-26T10:43:16.710Z,62.6
2019-03-26T10:44:17.109Z,63.6
2019-03-26T10:45:16.511Z,63.3
2019-03-26T10:46:16.922Z,62.7
2019-03-26T10:47:17.336Z,63.7
2019-03-26T10:48:16.737Z,63.5
2019-03-26T10:49:17.143Z,63.2
2019-03-26T10:50:16.632Z,64.0
2019-03-26T10:51:16.595Z,63.0
2019-03-26T10:52:16.986Z,63.2
2019-03-26T10:53:16.378Z,62.6
2019-03-26T10:54:16.781Z,62.9
2019-03-26T10:55:17.197Z,63.4
2019-03-26T10:56:16.596Z,63.6
2019-03-26T10:57:16.992Z,64.1
2019-03-26T10:58:16.386Z,64.0
2019-03-26T10:59:16.787Z,63.7
2019-03-26T11:00:17.196Z,64.2
2019-03-26T11:01:17.358Z,64.5
2019-03-26T11:02:16.755Z,64.1
2019-03-26T11:03:17.156Z,64.2
2019-03-26T11:04:16.556Z,64.0
2019-03-26T11:05:16.952Z,64.3
2019-03-26T11:06:17.357Z,66.0
2019-03-26T11:07:16.755Z,65.6
2019-03-26T11:08:17.158Z,64.8
2019-03-26T11:09:27.153Z,63.5
2019-03-26T11:10:16.700Z,63.5
2019-03-26T11:11:16.800Z,63.3
2019-03-26T11:12:17.201Z,63.3
2019-03-26T11:13:16.609Z,63.4
2019-03-26T11:14:17.012Z,62.8
2019-03-26T11:15:16.416Z,62.3
2019-03-26T11:16:16.818Z,62.7
2019-03-26T11:17:17.214Z,62.7
2019-03-26T11:18:16.605Z,63.7
2019-03-26T11:19:17.012Z,63.2
2019-03-26T11:20:16.434Z,63.8
2019-03-26T11:21:16.488Z,63.9
2019-03-26T11:22:16.879Z,63.6
2019-03-26T11:23:17.280Z,63.1
2019-03-26T11:24:16.687Z,63.7
2019-03-26T11:25:17.119Z,64.2
2019-03-26T11:26:16.529Z,62.3
2019-03-26T11:27:16.920Z,62.7
2019-03-26T11:28:17.319Z,62.0
2019-03-26T11:29:16.712Z,62.9
2019-03-26T11:30:17.135Z,62.6
2019-03-26T11:31:17.168Z,63.2
2019-03-26T11:32:16.578Z,63.2
2019-03-26T11:33:16.976Z,63.0
2019-03-26T11:34:17.379Z,62.7
2019-03-26T11:35:16.788Z,62.6
2019-03-26T11:36:17.187Z,62.7
2019-03-26T11:37:16.594Z,62.6
2019-03-26T11:38:18.805Z,62.4
2019-03-26T11:39:17.218Z,62.8
2019-03-26T11:40:16.636Z,64.4
2019-03-26T11:41:16.746Z,63.0
2019-03-26T11:42:17.142Z,62.6
2019-03-26T11:43:16.556Z,62.2
2019-03-26T11:44:16.968Z,61.4
2019-03-26T11:45:17.410Z,62.0
2019-03-26T11:46:16.821Z,62.2
2019-03-26T11:47:17.239Z,62.4
2019-03-26T11:48:16.629Z,64.0
2019-03-26T11:49:17.039Z,62.8
2019-03-26T11:50:16.437Z,63.0
2019-03-26T11:51:16.490Z,63.0
2019-03-26T11:52:16.882Z,63.4
2019-03-26T11:53:17.278Z,63.2
2019-03-26T11:54:16.677Z,63.3
2019-03-26T11:55:17.108Z,62.4
2019-03-26T11:56:16.510Z,61.5
2019-03-26T11:57:16.914Z,61.2
2019-03-26T11:58:30.139Z,61.5
2019-03-26T11:59:16.761Z,61.2
2019-03-26T12:00:17.204Z,60.7
2019-03-26T12:01:17.229Z,61.4
2019-03-26T12:02:16.698Z,61.4
2019-03-26T12:03:17.119Z,61.5
2019-03-26T12:04:16.531Z,61.6
2019-03-26T12:05:16.927Z,61.6
2019-03-26T12:06:17.317Z,61.7
2019-03-26T12:07:16.711Z,61.6
2019-03-26T12:08:17.104Z,62.0
2019-03-26T12:09:16.522Z,62.2
2019-03-26T12:10:16.941Z,62.0
2019-03-26T12:11:16.978Z,61.7
2019-03-26T12:12:17.383Z,61.6
2019-03-26T12:13:16.784Z,60.6
2019-03-26T12:14:17.183Z,60.4
2019-03-26T12:15:16.591Z,61.0
2019-03-26T12:16:16.991Z,60.7
2019-03-26T12:17:16.390Z,61.2
2019-03-26T12:18:16.788Z,61.1
2019-03-26T12:19:17.258Z,61.9
2019-03-26T12:20:16.681Z,61.2
2019-03-26T12:21:16.722Z,61.0
2019-03-26T12:22:17.118Z,61.7
2019-03-26T12:23:16.519Z,61.4
2019-03-26T12:24:16.936Z,61.5
2019-03-26T12:25:17.363Z,61.5
2019-03-26T12:26:16.759Z,61.5
2019-03-26T12:27:17.158Z,61.2
2019-03-26T12:28:16.544Z,61.8
2019-03-26T12:29:16.947Z,61.4
2019-03-26T12:30:17.661Z,61.0
2019-03-26T12:31:16.398Z,60.8
2019-03-26T12:32:16.798Z,60.5
2019-03-26T12:33:17.196Z,60.6
2019-03-26T12:34:16.594Z,60.6
2019-03-26T12:35:16.996Z,60.0
2019-03-26T12:36:16.392Z,60.1
2019-03-26T12:37:16.803Z,61.1
2019-03-26T12:38:17.198Z,61.2
2019-03-26T12:39:16.607Z,61.4
2019-03-26T12:40:17.035Z,60.2
2019-03-26T12:41:16.486Z,59.9
2019-03-26T12:42:16.919Z,59.8
2019-03-26T12:43:17.319Z,60.0
2019-03-26T12:44:16.712Z,60.3
2019-03-26T12:45:17.101Z,60.0
2019-03-26T12:46:16.488Z,59.7
2019-03-26T12:47:16.876Z,60.2
2019-03-26T12:48:17.276Z,61.8
2019-03-26T12:49:16.686Z,61.2
2019-03-26T12:50:17.089Z,61.1
2019-03-26T12:51:17.136Z,61.7
2019-03-26T12:52:16.547Z,60.8
2019-03-26T12:53:16.950Z,61.2
2019-03-26T12:54:17.339Z,61.2
2019-03-26T12:55:16.740Z,62.0
2019-03-26T12:56:17.135Z,62.1
2019-03-26T12:57:16.541Z,61.8
2019-03-26T12:58:16.936Z,61.7
2019-03-26T12:59:17.718Z,61.7
2019-03-26T13:00:17.133Z,61.7
2019-03-26T13:01:17.194Z,61.2
2019-03-26T13:02:16.612Z,61.2
2019-03-26T13:03:17.013Z,62.1
2019-03-26T13:04:17.079Z,60.9
2019-03-26T13:05:16.480Z,61.5
2019-03-26T13:06:16.881Z,61.5
2019-03-26T13:07:17.309Z,62.1
2019-03-26T13:08:16.708Z,62.3
2019-03-26T13:09:17.107Z,62.1
2019-03-26T13:10:16.531Z,62.9
2019-03-26T13:11:17.436Z,63.4
2019-03-26T13:12:16.916Z,63.0
2019-03-26T13:13:17.315Z,63.5
2019-03-26T13:14:16.711Z,63.4
2019-03-26T13:15:17.106Z,63.5
2019-03-26T13:16:16.500Z,63.5
2019-03-26T13:17:16.896Z,63.1
2019-03-26T13:18:17.294Z,63.1
2019-03-26T13:19:16.694Z,63.5
2019-03-26T13:20:17.121Z,63.1
2019-03-26T13:21:17.151Z,63.2
2019-03-26T13:22:16.560Z,63.0